Weather at Andamooka Airport

Public forecast

Using degrees Celsius for public forecast. Weather courtesy of forecast.io.

Closest aviation weather report (METAR) to Andamooka Airport

Closest report is Olympic Dam Airport, 13.7 nm (25.5 km) WSW. Retrieved 2021/06/25 03:00 UTC (1 hour ago):

YOLD 250300Z AUTO 23012KT 9999 // SCT035 15/05 Q1021

Closest aviation forecast (TAF) to Andamooka Airport

Forecast is more than 12 hours old.

Closest forecast is Woomera Airfield, 45.5 nm (84.2 km) SSW. Retrieved 2021/06/23 06:00 UTC (2 days ago):

TAF YPWR 230540Z 2306/2400 31018KT 9999 SCT040 FM230800 32014KT CAVOK FM231300 32014KT 9999 SCT030 FM232100 29014KT 9999 SCT010 TEMPO 2321/2400 9999 BKN010